createdAt,value
2022-08-22T00:03:15.396Z,77.70
2022-08-22T00:08:20.111Z,77.88
2022-08-22T00:13:33.334Z,78.15
2022-08-22T00:18:40.521Z,78.36
2022-08-22T00:23:49.483Z,78.61
2022-08-22T00:28:57.825Z,78.76
2022-08-22T00:34:06.430Z,79.00
2022-08-22T00:39:17.246Z,79.13
2022-08-22T00:44:44.453Z,79.21
2022-08-22T00:50:20.472Z,79.42
2022-08-22T00:55:46.271Z,79.60
2022-08-22T01:00:54.149Z,79.77
2022-08-22T01:06:17.868Z,79.86
2022-08-22T01:11:42.399Z,79.89
2022-08-22T01:17:09.361Z,79.93
2022-08-22T01:23:12.401Z,80.03
2022-08-22T01:29:00.038Z,80.11
2022-08-22T01:34:51.102Z,80.10
2022-08-22T01:40:22.628Z,80.25
2022-08-22T01:45:58.998Z,80.39
2022-08-22T01:51:03.552Z,80.56
2022-08-22T01:56:14.987Z,80.57
2022-08-22T02:01:33.938Z,80.75
2022-08-22T02:06:47.425Z,80.86
2022-08-22T02:11:54.389Z,80.90
2022-08-22T02:17:09.851Z,80.91
2022-08-22T02:22:29.883Z,81.04
2022-08-22T02:27:44.910Z,81.10
2022-08-22T02:33:02.253Z,81.25
2022-08-22T02:38:13.824Z,81.33
2022-08-22T02:43:22.797Z,81.47
2022-08-22T02:48:40.761Z,81.60
2022-08-22T02:53:54.615Z,81.67
2022-08-22T02:59:00.325Z,81.70
2022-08-22T03:04:44.789Z,81.69
2022-08-22T03:09:51.063Z,81.64
2022-08-22T03:15:04.588Z,81.66
2022-08-22T03:20:14.329Z,81.67
2022-08-22T03:25:28.241Z,81.56
2022-08-22T03:30:42.571Z,81.71
2022-08-22T03:35:58.611Z,81.75
2022-08-22T03:41:35.940Z,81.71
2022-08-22T03:47:04.251Z,81.68
2022-08-22T03:53:19.060Z,81.74
2022-08-22T03:58:44.224Z,81.79
2022-08-22T04:04:31.896Z,81.72
2022-08-22T04:10:07.896Z,81.68
2022-08-22T04:15:48.966Z,81.61
2022-08-22T04:21:31.834Z,81.44
2022-08-22T04:26:43.853Z,81.31
2022-08-22T04:31:51.275Z,81.30
2022-08-22T04:36:56.708Z,81.30
2022-08-22T04:42:30.815Z,81.24
2022-08-22T04:47:33.108Z,81.15
2022-08-22T04:52:56.262Z,81.00
2022-08-22T04:58:10.962Z,81.00
2022-08-22T05:03:21.218Z,80.95
2022-08-22T05:08:28.201Z,80.96
2022-08-22T05:13:33.450Z,81.00
2022-08-22T05:18:37.784Z,80.86
2022-08-22T05:23:44.126Z,80.61
2022-08-22T05:28:53.097Z,80.35
2022-08-22T05:33:57.947Z,80.09
2022-08-22T05:39:02.369Z,79.86
2022-08-22T05:44:01.505Z,79.69
2022-08-22T05:49:04.161Z,79.33
2022-08-22T05:54:17.473Z,78.88
2022-08-22T05:59:27.654Z,78.32
2022-08-22T06:04:35.788Z,77.69
2022-08-22T06:09:55.655Z,77.14
2022-08-22T06:15:11.867Z,76.68
2022-08-22T06:20:18.194Z,76.20
2022-08-22T06:25:23.898Z,75.79
2022-08-22T06:30:25.464Z,75.37
2022-08-22T06:35:55.809Z,74.85
2022-08-22T06:40:58.215Z,74.23
2022-08-22T06:45:57.528Z,74.03
2022-08-22T06:51:00.751Z,73.73
2022-08-22T06:56:05.993Z,73.40
2022-08-22T07:01:12.753Z,72.82
2022-08-22T07:06:20.481Z,72.54
2022-08-22T07:11:27.793Z,72.32
2022-08-22T07:16:36.851Z,71.58
2022-08-22T07:21:49.393Z,71.03
2022-08-22T07:27:08.895Z,70.21
2022-08-22T07:32:18.032Z,69.57
2022-08-22T07:37:31.426Z,69.35
2022-08-22T07:42:43.638Z,68.91
2022-08-22T07:48:25.084Z,69.19
2022-08-22T07:53:37.751Z,68.64
2022-08-22T07:58:42.092Z,67.86
2022-08-22T08:03:41.622Z,67.67
2022-08-22T08:08:46.697Z,67.11
2022-08-22T08:13:52.890Z,65.67
2022-08-22T08:18:57.286Z,64.62
2022-08-22T08:23:57.681Z,64.29
2022-08-22T08:29:00.038Z,63.67
2022-08-22T08:34:09.383Z,63.53
2022-08-22T08:39:20.770Z,62.40
2022-08-22T08:44:43.937Z,62.31
2022-08-22T08:50:02.501Z,61.27
2022-08-22T09:01:04.490Z,61.05
2022-08-22T09:06:44.827Z,60.01
2022-08-22T09:12:27.462Z,59.72
2022-08-22T09:17:59.036Z,58.56
2022-08-22T09:23:44.318Z,57.98
2022-08-22T09:28:54.010Z,57.08
2022-08-22T09:34:05.201Z,55.90
2022-08-22T09:39:20.162Z,53.51
2022-08-22T09:44:32.284Z,53.10
2022-08-22T09:49:49.807Z,52.73
2022-08-22T09:54:56.542Z,52.10
2022-08-22T10:00:17.412Z,51.03
2022-08-22T10:05:35.237Z,50.69
2022-08-22T10:11:03.116Z,50.03
2022-08-22T10:16:27.100Z,49.42
2022-08-22T10:21:41.061Z,48.75
2022-08-22T10:26:55.465Z,48.06
2022-08-22T10:32:10.687Z,48.44
2022-08-22T10:37:25.567Z,48.27
2022-08-22T10:42:35.790Z,48.58
2022-08-22T10:47:43.215Z,48.67
2022-08-22T10:53:12.868Z,49.15
2022-08-22T10:58:17.464Z,49.22
2022-08-22T11:03:30.815Z,49.76
2022-08-22T11:08:56.377Z,50.62
2022-08-22T11:14:26.009Z,51.37
2022-08-22T11:19:48.408Z,51.60
2022-08-22T11:25:38.807Z,52.67
2022-08-22T11:30:52.036Z,53.24
2022-08-22T11:36:04.769Z,53.51
2022-08-22T11:41:17.226Z,54.06
2022-08-22T11:46:32.694Z,54.37
2022-08-22T11:52:01.981Z,54.31
2022-08-22T11:57:12.853Z,53.57
2022-08-22T12:02:28.046Z,53.28
2022-08-22T12:07:39.059Z,53.15
2022-08-22T12:12:55.572Z,52.67
2022-08-22T12:18:32.108Z,52.74
2022-08-22T12:24:19.294Z,52.71
2022-08-22T12:29:44.703Z,51.72
2022-08-22T12:35:00.949Z,52.03
2022-08-22T12:40:45.498Z,51.63
2022-08-22T12:46:06.862Z,51.08
2022-08-22T12:51:45.100Z,50.70
2022-08-22T12:56:56.315Z,49.62
2022-08-22T13:02:01.042Z,48.88
2022-08-22T13:07:11.279Z,49.02
2022-08-22T13:12:26.225Z,49.13
2022-08-22T13:17:29.258Z,48.85
2022-08-22T13:22:35.330Z,48.83
2022-08-22T13:27:50.818Z,47.69
2022-08-22T13:33:13.032Z,46.76
2022-08-22T13:38:25.686Z,45.90
2022-08-22T13:43:30.940Z,44.49
2022-08-22T13:48:46.988Z,45.68
2022-08-22T13:54:01.005Z,45.85
2022-08-22T13:59:08.135Z,45.30
2022-08-22T14:04:35.608Z,45.89
2022-08-22T14:09:56.060Z,45.69
2022-08-22T14:15:01.949Z,45.29
2022-08-22T14:20:11.140Z,45.77
2022-08-22T14:25:24.017Z,45.38
2022-08-22T14:30:28.619Z,46.76
2022-08-22T14:35:37.964Z,47.27
2022-08-22T14:40:40.229Z,47.26
2022-08-22T14:45:45.670Z,47.15
2022-08-22T14:50:53.437Z,47.58
2022-08-22T14:56:04.569Z,47.99
2022-08-22T15:01:15.305Z,48.14
2022-08-22T15:06:31.744Z,48.73
2022-08-22T15:11:33.430Z,49.34
2022-08-22T15:16:43.813Z,49.60
2022-08-22T15:21:42.729Z,50.24
2022-08-22T15:26:55.293Z,50.03
2022-08-22T15:32:01.787Z,50.47
2022-08-22T15:37:27.631Z,50.88
2022-08-22T15:42:33.480Z,51.47
2022-08-22T15:47:41.718Z,51.78
2022-08-22T15:53:15.755Z,51.84
2022-08-22T15:58:25.450Z,52.03
2022-08-22T16:03:33.614Z,52.40
2022-08-22T16:08:52.156Z,52.76
2022-08-22T16:14:22.792Z,53.37
2022-08-22T16:19:26.446Z,53.96
2022-08-22T16:24:50.666Z,54.31
2022-08-22T16:30:01.063Z,54.67
2022-08-22T16:35:00.811Z,54.78
2022-08-22T16:40:16.794Z,54.96
2022-08-22T16:45:33.947Z,54.99
2022-08-22T16:50:41.010Z,55.08
2022-08-22T16:56:11.250Z,54.97
2022-08-22T17:01:20.842Z,54.96
2022-08-22T17:06:45.434Z,55.24
2022-08-22T17:11:59.404Z,55.44
2022-08-22T17:17:23.623Z,55.67
2022-08-22T17:22:33.178Z,55.79
2022-08-22T17:27:41.972Z,56.03
2022-08-22T17:33:10.030Z,56.35
2022-08-22T17:38:21.242Z,56.73
2022-08-22T17:43:49.228Z,57.27
2022-08-22T17:48:55.572Z,57.69
2022-08-22T17:54:02.101Z,57.94
2022-08-22T17:59:14.672Z,58.40
2022-08-22T18:04:30.506Z,59.06
2022-08-22T18:09:42.223Z,59.51
2022-08-22T18:14:55.144Z,60.04
2022-08-22T18:20:11.660Z,60.54
2022-08-22T18:25:35.873Z,60.90
2022-08-22T18:30:50.436Z,61.28
2022-08-22T18:35:56.743Z,61.67
2022-08-22T18:41:10.581Z,62.12
2022-08-22T18:46:40.933Z,62.49
2022-08-22T18:51:40.271Z,62.68
2022-08-22T18:56:54.844Z,62.99
2022-08-22T19:02:11.469Z,63.63
2022-08-22T19:07:35.743Z,64.20
2022-08-22T19:12:59.100Z,64.86
2022-08-22T19:18:27.925Z,65.40
2022-08-22T19:23:53.345Z,65.75
2022-08-22T19:28:53.154Z,66.04
2022-08-22T19:34:16.685Z,66.54
2022-08-22T19:39:54.628Z,67.04
2022-08-22T19:45:07.212Z,67.42
2022-08-22T19:50:14.614Z,67.75
2022-08-22T19:55:26.881Z,68.25
2022-08-22T20:00:50.298Z,68.73
2022-08-22T20:06:05.247Z,69.24
2022-08-22T20:11:38.264Z,69.64
2022-08-22T20:17:09.648Z,69.86
2022-08-22T20:22:12.017Z,70.21
2022-08-22T20:27:22.272Z,70.81
2022-08-22T20:32:26.231Z,71.31
2022-08-22T20:37:50.692Z,71.61
2022-08-22T20:42:54.932Z,71.99
2022-08-22T20:47:54.401Z,72.14
2022-08-22T20:53:13.641Z,72.44
2022-08-22T20:58:37.749Z,72.78
2022-08-22T21:03:45.171Z,73.07
2022-08-22T21:08:46.936Z,73.37
2022-08-22T21:13:46.147Z,73.64
2022-08-22T21:18:49.788Z,74.06
2022-08-22T21:23:51.951Z,74.67
2022-08-22T21:29:03.016Z,74.72
2022-08-22T21:34:03.762Z,74.86
2022-08-22T21:39:07.271Z,74.96
2022-08-22T21:44:29.660Z,75.18
2022-08-22T21:49:32.481Z,75.37
2022-08-22T21:54:43.456Z,75.53
2022-08-22T21:59:52.034Z,75.66
2022-08-22T22:04:58.900Z,75.96
2022-08-22T22:09:58.827Z,76.13
2022-08-22T22:14:58.258Z,76.14
2022-08-22T22:19:56.960Z,76.36
2022-08-22T22:24:56.300Z,76.49
2022-08-22T22:29:55.721Z,76.69
2022-08-22T22:34:55.507Z,76.93
2022-08-22T22:39:55.157Z,77.21
2022-08-22T22:44:54.335Z,77.42
2022-08-22T22:49:54.792Z,77.49
2022-08-22T22:54:54.154Z,77.54
2022-08-22T22:59:54.025Z,77.77
2022-08-22T23:04:57.876Z,77.94
2022-08-22T23:09:58.680Z,78.19
2022-08-22T23:15:01.389Z,78.35
2022-08-22T23:20:00.418Z,78.53
2022-08-22T23:25:00.580Z,78.66
2022-08-22T23:30:00.396Z,78.76
2022-08-22T23:34:59.770Z,78.89
2022-08-22T23:39:59.832Z,79.25
2022-08-22T23:44:59.021Z,79.58
2022-08-22T23:49:58.064Z,79.79
2022-08-22T23:54:57.853Z,79.82
2022-08-22T23:59:58.472Z,79.96
